Flight Track Log - Related Links

Times and Time Zones

All times are in EDT time to prevent confusion due to time zone crossing. See the UAL906 flight status page for this flight to view local times or setup timezone preferences in your user account.

Time Position Orientation Groundspeed Altitude Reporting Facility
EDT Latitude Longitude Course Direction KTS MPH feet Rate Location/Type
Sun 07:02:01 AM 50.0470 8.5690 295° West 10 12  Level FlightAware ADS-B
Sun 07:03:05 AM 50.0470 8.5700 90° East 11 13 27 Level FlightAware ADS-B
Sun 07:03:33 AM 50.0470 8.5690 270° West 9 10 29 Level FlightAware ADS-B
Sun 07:06:00 AM 50.1962 8.1768 300° West  Level FlightAware Approximate
Sun 07:06:57 AM 50.0460 8.5690 298° West 12 14  Level FlightAware ADS-B
Sun 07:07:00 AM 50.2679 8.0296 298° West  Level FlightAware Approximate
Sun 07:07:45 AM 50.0450 8.5680 213° Southwest 29 33  Level FlightAware ADS-B
Sun 07:08:13 AM 50.0430 8.5680 180° South 27 31 43 Level FlightAware ADS-B
Sun 07:08:25 AM 50.0430 8.5690 90° East 22 25 45 Level FlightAware ADS-B
Sun 07:09:11 AM 50.0430 8.5720 90° East 29 33 46 Level FlightAware ADS-B
Sun 07:09:39 AM 50.0440 8.5740 52° Northeast 16 18 51 Level FlightAware ADS-B
Sun 07:10:01 AM 50.0440 8.5750 90° East 20 23 54 Level FlightAware ADS-B
Sun 07:10:49 AM 50.0450 8.5790 69° East 34 39 57 Level FlightAware ADS-B
Sun 07:11:43 AM 50.0460 8.5840 73° East 26 30 64 Level FlightAware ADS-B
Sun 07:13:23 AM 50.0470 8.5850 33° Northeast 21 24 75 Level FlightAware ADS-B
Sun 07:13:47 AM 50.0460 8.5860 147° Southeast 22 25 109 Level FlightAware ADS-B
Sun 07:14:39 AM 50.0450 8.5850 213° Southwest 2 2 122 Level FlightAware ADS-B
Sun 07:16:27 AM 50.0430 8.5780 246° West 94 108 166 Level FlightAware ADS-B
Sun 07:16:49 AM 50.0380 8.5580 249° West 649 Level FlightAware ADS-B
Sun 07:17:04 AM 50.0350 8.5460 249° West 180 207 400 2,571 Climbing FlightAware ADS-B
Sun 07:17:31 AM 50.0270 8.5060 253° West 181 208 1,800 1,879 Climbing FlightAware ADS-B
Sun 07:18:13 AM 50.0300 8.4570 275° West 3,100 1,417 Climbing FlightAware ADS-B
Sun 07:18:43 AM 50.0260 8.4090 263° West 214 246 3,500 1,065 Climbing FlightAware ADS-B
Sun 07:19:15 AM 50.0200 8.3590 259° West 239 275 4,200 1,053 Climbing FlightAware ADS-B
Sun 07:19:40 AM 50.0170 8.3390 257° West 253 291 4,500 2,077 Climbing FlightAware ADS-B
Sun 07:20:07 AM 50.0150 8.2670 268° West 261 300 6,000 1,944 Climbing FlightAware ADS-B
Sun 07:20:51 AM 50.0230 8.2390 294° West 254 292 6,800 2,571 Climbing FlightAware ADS-B
Sun 07:21:17 AM 50.0510 8.1450 295° West 257 296 9,000 3,182 Climbing FlightAware ADS-B
Sun 07:21:57 AM 50.0780 8.0830 304° West 273 314 10,300 1,129 Climbing FlightAware ADS-B
Sun 07:22:42 AM 50.1170 8.0060 308° West 320 368 10,600 988 Climbing FlightAware ADS-B
Sun 07:23:22 AM 50.1550 7.9310 308° West 336 387 11,700 1,835 Climbing FlightAware ADS-B
Sun 07:24:07 AM 50.2020 7.8430 310° West 346 398 13,200 1,976 Climbing FlightAware ADS-B
Sun 07:24:47 AM 50.2420 7.7650 309° West 357 411 14,500 1,776 Climbing FlightAware ADS-B
Sun 07:25:45 AM 50.3070 7.6990 327° Northwest 371 427 16,100 1,768 Climbing FlightAware ADS-B
Sun 07:26:22 AM 50.3900 7.6450 337° Northwest 382 440 17,300 1,683 Climbing FlightAware ADS-B
Sun 07:27:07 AM 50.4610 7.5970 337° Northwest 389 448 18,400 1,482 Climbing FlightAware ADS-B
Sun 07:27:47 AM 50.5260 7.5520 336° Northwest 391 450 19,400 1,412 Climbing FlightAware ADS-B
Sun 07:28:32 AM 50.6030 7.4850 331° Northwest 402 463 20,400 1,341 Climbing FlightAware ADS-B
Sun 07:29:12 AM 50.6670 7.4170 326° Northwest 407 468 21,300 1,425 Climbing FlightAware ADS-B
Sun 07:29:52 AM 50.7290 7.3530 327° Northwest 405 466 22,300 1,320 Climbing FlightAware ADS-B
Sun 07:30:52 AM 50.8190 7.2460 323° Northwest 408 470 23,500 1,118 Climbing FlightAware ADS-B
Sun 07:31:34 AM 50.8640 7.1520 307° West 401 461 24,200 1,129 Climbing FlightAware ADS-B
Sun 07:32:17 AM 50.9110 7.0370 303° West 411 473 25,100 1,157 Climbing FlightAware ADS-B
Sun 07:32:57 AM 50.9500 6.9420 303° West 416 479 25,800 1,059 Climbing FlightAware ADS-B
Sun 07:33:42 AM 51.0000 6.8200 303° West 423 487 26,600 1,037 Climbing FlightAware ADS-B
Sun 07:34:18 AM 51.0390 6.7230 303° West 429 494 27,200 1,026 Climbing FlightAware ADS-B
Sun 07:34:58 AM 51.0810 6.6180 303° West 433 498 27,900 988 Climbing FlightAware ADS-B
Sun 07:35:43 AM 51.1300 6.4950 302° West 437 503 28,600 933 Climbing FlightAware ADS-B
Sun 07:36:28 AM 51.1780 6.3760 303° West 442 509 29,300 907 Climbing FlightAware ADS-B
Sun 07:37:09 AM 51.2210 6.2660 302° West 444 511 29,900 900 Climbing FlightAware ADS-B
Sun 07:37:48 AM 51.2660 6.1520 302° West 448 516 30,500 835 Climbing FlightAware ADS-B
Sun 07:38:28 AM 51.3080 6.0460 302° West 452 520 31,000 1,129 Climbing FlightAware ADS-B
Sun 07:39:13 AM 51.3700 5.9260 310° West 457 526 32,100 1,172 Climbing FlightAware ADS-B
Sun 07:39:55 AM 51.4350 5.8400 320° Northwest 461 531 32,700 1,012 Climbing FlightAware ADS-B
Sun 07:40:36 AM 51.5020 5.7550 322° Northwest 455 524 33,500 876 Climbing FlightAware ADS-B
Sun 07:41:24 AM 51.5840 5.6510 322° Northwest 453 521 34,000 330 Climbing FlightAware ADS-B
Sun 07:42:07 AM 51.6540 5.5630 322° Northwest 451 519 34,000  Level FlightAware ADS-B
Sun 07:42:49 AM 51.7240 5.4740 322° Northwest 451 519 34,000  Level FlightAware ADS-B
Sun 07:43:27 AM 51.7850 5.3950 322° Northwest 452 520 34,000  Level FlightAware ADS-B
Sun 07:43:32 AM 51.7943 5.3794 322° Northwest 482 555 34,000  Level FlightAware UK
Sun 07:44:09 AM 51.8540 5.3060 321° Northwest 453 521 34,000 -91 Level FlightAware ADS-B
Sun 07:44:38 AM 51.9027 5.2406 321° Northwest 482 555 33,900  Descending FlightAware UK
Sun 07:44:53 AM 51.9270 5.2120 321° Northwest 453 521 34,000 86 Climbing FlightAware ADS-B
Sun 07:45:48 AM 52.0180 5.0940 321° Northwest 455 524 34,000  Level FlightAware ADS-B
Sun 07:46:27 AM 52.0840 5.0080 321° Northwest 455 524 34,000  Level FlightAware ADS-B
Sun 07:47:11 AM 52.1510 4.9200 321° Northwest 454 522 34,000  Level FlightAware ADS-B
Sun 07:47:55 AM 52.2240 4.8240 321° Northwest 455 524 34,000 -133 Level FlightAware ADS-B
Sun 07:47:56 AM 52.2272 4.8184 321° Northwest 486 559 33,900 -194 Descending FlightAware UK
Sun 07:48:26 AM 52.2756 4.7532 321° Northwest 486 559 33,900 162 Level FlightAware UK
Sun 07:48:33 AM 52.2840 4.7450 321° Northwest 455 524 34,000  Climbing FlightAware ADS-B
Sun 07:48:56 AM 52.3253 4.6892 321° Northwest 486 559 33,900  Descending FlightAware UK
Sun 07:49:20 AM 52.3640 4.6380 321° Northwest 453 521 34,000 95 Climbing FlightAware ADS-B
Sun 07:49:59 AM 52.4280 4.5530 321° Northwest 453 521 34,000 -102 Level FlightAware ADS-B
Sun 07:50:19 AM 52.4632 4.5092 321° Northwest 484 557 33,900  Descending FlightAware UK
Sun 07:50:58 AM 52.4680 4.5000 321° Northwest 453 521 34,000 90 Climbing FlightAware ADS-B
Sun 07:51:26 AM 52.5690 4.3650 321° Northwest 452 520 34,000  Level FlightAware ADS-B
Sun 07:52:07 AM 52.6340 4.2770 321° Northwest 452 520 34,000  Level FlightAware ADS-B
Sun 07:52:47 AM 52.6980 4.1900 321° Northwest 451 519 34,000  Level FlightAware ADS-B
Sun 07:53:18 AM 52.7460 4.1250 321° Northwest 451 519 34,000  Level FlightAware ADS-B
Sun 07:53:54 AM 52.8010 4.0490 320° Northwest 450 518 34,000  Level FlightAware ADS-B
Sun 07:54:44 AM 52.8870 3.9320 321° Northwest 448 516 34,000 -82 Level FlightAware ADS-B
Sun 07:55:07 AM 52.9259 3.8804 321° Northwest 488 562 33,900  Descending FlightAware UK
Sun 07:55:20 AM 52.9440 3.8540 321° Northwest 447 514 34,000 118 Climbing FlightAware ADS-B
Sun 07:55:58 AM 53.0020 3.7740 320° Northwest 446 513 34,000  Level FlightAware ADS-B
Sun 07:56:19 AM 53.0396 3.7230 320° Northwest 486 559 34,000  Level FlightAware UK
Sun 07:56:41 AM 53.0730 3.6750 320° Northwest 445 512 34,000  Level FlightAware ADS-B
Sun 07:57:01 AM 53.1058 3.6311 320° Northwest 484 557 34,000  Level FlightAware UK
Sun 07:57:15 AM 53.1260 3.6020 320° Northwest 445 512 34,000  Level FlightAware ADS-B
Sun 07:57:31 AM 53.1530 3.5654 320° Northwest 484 557 34,000  Level FlightAware UK
Sun 07:58:03 AM 53.2030 3.4950 320° Northwest 444 511 34,000 -125 Level FlightAware ADS-B
Sun 07:58:19 AM 53.2280 3.4608 320° Northwest 482 555 33,900  Descending FlightAware UK
Sun 07:58:41 AM 53.2640 3.4250 331° Northwest 464 534 34,000  Climbing FlightAware ADS-B
Sun 07:58:43 AM 53.2720 3.4193 331° Northwest 484 557 33,900  Descending FlightAware UK
Sun 07:59:30 AM 53.3680 3.3610 340° North 477 549 34,000 69 Climbing FlightAware ADS-B
Sun 08:00:10 AM 53.4500 3.3140 341° North 476 548 34,000  Level FlightAware ADS-B
Sun 08:00:50 AM 53.5310 3.2560 337° Northwest 457 526 34,000  Level FlightAware ADS-B
Sun 08:01:07 AM 53.5623 3.2226 337° Northwest 482 555 34,000  Level FlightAware UK
Sun 08:01:34 AM 53.6010 3.1600 337° Northwest 434 499 34,000  Level FlightAware ADS-B
Sun 08:02:07 AM 53.6426 3.0743 337° Northwest 484 557 34,000  Level FlightAware UK
Sun 08:02:16 AM 53.6530 3.0530 337° Northwest 427 491 34,000 -200 Level FlightAware ADS-B
Sun 08:02:37 AM 53.6796 2.9968 337° Northwest 484 557 33,900  Descending FlightAware UK
Sun 08:03:00 AM 53.7070 2.9370 337° Northwest 425 489 34,000 100 Climbing FlightAware ADS-B
Sun 08:03:37 AM 53.7530 2.8410 337° Northwest 480 552 34,000  Level FlightAware UK
Sun 08:03:40 AM 53.7550 2.8360 337° Northwest 426 490 34,000  Level FlightAware ADS-B
Sun 08:04:24 AM 53.8090 2.7200 308° West 427 491 34,000  Level FlightAware ADS-B
Sun 08:04:59 AM 53.8500 2.6330 308° West 427 491 34,000  Level FlightAware ADS-B
Sun 08:05:07 AM 53.8631 2.6058 308° West 480 552 34,000  Level FlightAware UK
Sun 08:05:43 AM 53.9067 2.5116 308° West 482 555 34,000  Level FlightAware UK
Sun 08:05:44 AM 53.9060 2.5120 308° West 428 493 34,000  Level FlightAware ADS-B
Sun 08:06:19 AM 53.9506 2.4166 308° West 482 555 34,000  Level FlightAware UK
Sun 08:06:41 AM 53.9770 2.3590 308° West 428 493 34,000  Level FlightAware ADS-B
Sun 08:07:25 AM 54.0309 2.2420 308° West 480 552 34,000  Level FlightAware UK
Sun 08:07:25 AM 54.0290 2.2460 308° West 429 494 34,000  Level FlightAware ADS-B
Sun 08:08:01 AM 54.0747 2.1460 308° West 482 555 34,000  Level FlightAware UK
Sun 08:08:06 AM 54.0720 2.1530 308° West 431 496 34,000  Level FlightAware ADS-B
Sun 08:08:31 AM 54.1111 2.0657 308° West 482 555 34,000  Level FlightAware UK
Sun 08:08:51 AM 54.1350 2.0140 308° West 430 495 34,000  Level FlightAware ADS-B
Sun 08:09:31 AM 54.1840 1.9047 308° West 482 555 34,000  Level FlightAware UK
Sun 08:09:31 AM 54.1830 1.9070 308° West 431 496 34,000  Level FlightAware ADS-B
Sun 08:10:13 AM 54.2348 1.7923 308° West 480 552 34,000  Level FlightAware UK
Sun 08:10:28 AM 54.2370 1.7890 308° West 431 496 34,000  Level FlightAware ADS-B
Sun 08:10:49 AM 54.2786 1.6952 308° West 480 552 34,000  Level FlightAware UK
Sun 08:10:56 AM 54.2870 1.6760 308° West 433 498 34,000  Level FlightAware ADS-B
Sun 08:11:31 AM 54.3296 1.5812 308° West 484 557 34,000  Level FlightAware UK
Sun 08:11:36 AM 54.3340 1.5730 308° West 434 499 34,000 -113 Level FlightAware ADS-B
Sun 08:12:24 AM 54.3952 1.4346 308° West 486 559 33,900  Descending FlightAware UK
Sun 08:12:33 AM 54.4050 1.4140 308° West 433 498 34,000 118 Climbing FlightAware ADS-B
Sun 08:13:15 AM 54.4540 1.3010 307° West 431 496 34,000  Level FlightAware ADS-B
Sun 08:13:40 AM 54.4850 1.2320 308° West 430 495 34,000  Level FlightAware ADS-B
Sun 08:14:18 AM 54.5321 1.1246 308° West 486 559 34,000  Level FlightAware UK
Sun 08:14:23 AM 54.5360 1.1160 308° West 427 491 34,000 -167 Level FlightAware ADS-B
Sun 08:14:54 AM 54.5748 1.0270 308° West 484 557 33,900  Descending FlightAware UK
Sun 08:15:02 AM 54.5820 1.0110 308° West 427 491 34,000  Climbing FlightAware ADS-B
Sun 08:15:42 AM 54.6313 0.8966 308° West 482 555 33,900  Descending FlightAware UK
Sun 08:15:49 AM 54.6390 0.8800 308° West 426 490 34,000 143 Climbing FlightAware ADS-B
Sun 08:16:24 AM 54.6807 0.7832 308° West 482 555 34,000  Level FlightAware UK
Sun 08:16:29 AM 54.6870 0.7700 308° West 426 490 34,000  Level FlightAware ADS-B
Sun 08:17:13 AM 54.7370 0.6520 306° West 426 490 34,000 -98 Level FlightAware ADS-B
Sun 08:17:30 AM 54.7583 0.6036 306° West 480 552 33,900  Descending FlightAware UK
Sun 08:17:55 AM 54.7870 0.5370 306° West 426 490 34,000 95 Climbing FlightAware ADS-B
Sun 08:18:33 AM 54.8320 0.4330 306° West 428 493 34,000 -146 Level FlightAware ADS-B
Sun 08:18:36 AM 54.8354 0.4234 306° West 476 548 33,900 -154 Descending FlightAware UK
Sun 08:19:12 AM 54.8774 0.3247 306° West 476 548 33,900 140 Level FlightAware UK
Sun 08:19:19 AM 54.8850 0.3080 306° West 429 494 34,000  Climbing FlightAware ADS-B
Sun 08:19:48 AM 54.9199 0.2247 306° West 476 548 33,900  Descending FlightAware UK
Sun 08:20:01 AM 54.9350 0.1880 306° West 432 497 34,000 167 Climbing FlightAware ADS-B
Sun 08:20:24 AM 54.9626 0.1242 306° West 474 545 34,000  Level FlightAware UK
Sun 08:20:44 AM 54.9450 0.1640 306° West 432 497 34,000  Level FlightAware ADS-B
Sun 08:20:59 AM 55.0049 0.0232 306° West 476 548 34,000  Level FlightAware UK
Sun 08:21:22 AM 55.0290 -0.0340 306° West 437 503 34,000 -100 Level FlightAware ADS-B
Sun 08:21:59 AM 55.0762 -0.1477 306° West 474 545 33,900  Descending FlightAware UK
Sun 08:22:07 AM 55.0830 -0.1640 306° West 440 506 34,000 167 Climbing FlightAware ADS-B
Sun 08:22:35 AM 55.1189 -0.2507 306° West 476 548 34,000  Level FlightAware UK
Sun 08:22:51 AM 55.1250 -0.2660 306° West 443 510 34,000  Level FlightAware ADS-B
Sun 08:23:17 AM 55.1695 -0.3722 306° West 476 548 34,000  Level FlightAware UK
Sun 08:23:31 AM 55.1850 -0.4110 306° West 445 512 34,000  Level FlightAware ADS-B
Sun 08:23:59 AM 55.2199 -0.4951 306° West 478 550 34,000  Level FlightAware UK
Sun 08:24:11 AM 55.2320 -0.5230 306° West 447 514 34,000  Level FlightAware ADS-B
Sun 08:24:55 AM 55.2870 -0.6580 306° West 447 514 34,000 -71 Level FlightAware ADS-B
Sun 08:25:35 AM 55.3352 -0.7768 306° West 482 555 33,900  Descending FlightAware UK
Sun 08:25:38 AM 55.3350 -0.7750 306° West 446 513 34,000  Climbing FlightAware ADS-B
Sun 08:26:11 AM 55.3783 -0.8830 306° West 480 552 33,900  Descending FlightAware UK
Sun 08:26:17 AM 55.3830 -0.8960 306° West 447 514 34,000 167 Climbing FlightAware ADS-B
Sun 08:26:47 AM 55.4207 -0.9883 306° West 480 552 34,000  Level FlightAware UK
Sun 08:26:57 AM 55.4320 -1.0150 306° West 447 514 34,000  Level FlightAware ADS-B
Sun 08:27:17 AM 55.4566 -1.0775 306° West 480 552 34,000  Level FlightAware UK
Sun 08:27:42 AM 55.4850 -1.1470 306° West 447 514 34,000  Level FlightAware ADS-B
Sun 08:28:27 AM 55.5380 -1.2800 305° West 446 513 34,000 -92 Level FlightAware ADS-B
Sun 08:28:47 AM 55.5632 -1.3443 305° West 482 555 33,900  Descending FlightAware UK
Sun 08:29:07 AM 55.5860 -1.4010 305° West 445 512 34,000 100 Climbing FlightAware ADS-B
Sun 08:29:47 AM 55.6310 -1.5160 305° West 440 506 34,000  Level FlightAware ADS-B
Sun 08:30:16 AM 55.6688 -1.6118 305° West 482 555 34,000  Level FlightAware UK
Sun 08:30:32 AM 55.6850 -1.6520 305° West 440 506 34,000  Level FlightAware ADS-B
Sun 08:31:07 AM 55.7260 -1.7580 305° West 439 505 34,000  Level FlightAware ADS-B
Sun 08:31:40 AM 55.7664 -1.8617 305° West 482 555 34,000  Level FlightAware UK
Sun 08:31:52 AM 55.7780 -1.8920 305° West 438 504 34,000  Level FlightAware ADS-B
Sun 08:32:16 AM 55.8081 -1.9694 305° West 482 555 34,000  Level FlightAware UK
Sun 08:32:37 AM 55.8310 -2.0270 305° West 437 503 34,000  Level FlightAware ADS-B
Sun 08:33:12 AM 55.8690 -2.1280 304° West 436 502 34,000  Level FlightAware ADS-B
Sun 08:33:46 AM 55.9113 -2.2375 304° West 478 550 34,000  Level FlightAware UK
Sun 08:33:58 AM 55.9200 -2.2600 304° West 436 502 34,000  Level FlightAware ADS-B
Sun 08:34:16 AM 55.9456 -2.3271 304° West 478 550 34,000  Level FlightAware UK
Sun 08:34:41 AM 55.9730 -2.3990 304° West 439 505 34,000  Level FlightAware ADS-B
Sun 08:35:17 AM 56.0050 -2.4830 304° West 439 505 34,000 -113 Level FlightAware ADS-B
Sun 08:35:34 AM 56.0340 -2.5602 304° West 480 552 33,900  Descending FlightAware UK
Sun 08:36:09 AM 56.0720 -2.6610 304° West 438 504 34,000 86 Climbing FlightAware ADS-B
Sun 08:36:44 AM 56.1090 -2.7580 304° West 439 505 34,000  Level FlightAware ADS-B
Sun 08:36:46 AM 56.1155 -2.7763 304° West 478 550 34,000  Level FlightAware UK
Sun 08:37:24 AM 56.1570 -2.8870 304° West 438 504 34,000  Level FlightAware ADS-B
Sun 08:37:46 AM 56.1826 -2.9567 304° West 478 550 34,000  Level FlightAware UK
Sun 08:38:14 AM 56.2120 -3.0350 304° West 439 505 34,000  Level FlightAware ADS-B
Sun 08:38:33 AM 56.2363 -3.1014 304° West 478 550 34,000  Level FlightAware UK
Sun 08:38:54 AM 56.2570 -3.1590 304° West 440 506 34,000  Level FlightAware ADS-B
Sun 08:39:09 AM 56.2766 -3.2109 304° West 480 552 34,000  Level FlightAware UK
Sun 08:39:34 AM 56.3020 -3.2800 304° West 440 506 34,000  Level FlightAware ADS-B
Sun 08:40:09 AM 56.3437 -3.3939 304° West 480 552 34,000  Level FlightAware UK
Sun 08:40:14 AM 56.3470 -3.4030 304° West 435 501 34,000  Level FlightAware ADS-B
Sun 08:40:39 AM 56.3705 -3.4911 304° West 480 552 34,000  Level FlightAware UK
Sun 08:41:02 AM 56.3800 -3.5500 304° West 433 498 34,000  Level FlightAware ADS-B
Sun 08:41:39 AM 56.3980 -3.6950 283° West 430 495 34,000 -109 Level FlightAware ADS-B
Sun 08:41:57 AM 56.4064 -3.7633 283° West 480 552 33,900  Descending FlightAware UK
Sun 08:42:22 AM 56.4140 -3.8290 283° West 431 496 34,000 125 Climbing FlightAware ADS-B
Sun 08:42:45 AM 56.4262 -3.9320 283° West 478 550 34,000  Level FlightAware UK
Sun 08:43:07 AM 56.4330 -3.9870 283° West 432 497 34,000 102 Level FlightAware ADS-B
Sun 08:43:44 AM 56.4470 -4.1080 282° West 429 494 34,100 290 Climbing FlightAware ADS-B
Sun 08:44:09 AM 56.4616 -4.2260 282° West 474 545 34,300 429 Climbing FlightAware UK
Sun 08:44:26 AM 56.4650 -4.2520 282° West 433 498 34,400 407 Climbing FlightAware ADS-B
Sun 08:45:08 AM 56.4830 -4.4070 282° West 439 505 34,700 419 Climbing FlightAware ADS-B
Sun 08:45:09 AM 56.4867 -4.4398 282° West 476 548 34,700 367 Level FlightAware UK
Sun 08:45:57 AM 56.5067 -4.6136 282° West 478 550 35,000 295 Climbing FlightAware UK
Sun 08:46:10 AM 56.5040 -4.5870 282° West 442 509 35,000 600 Level FlightAware ADS-B
Sun 08:46:27 AM 56.5192 -4.7226 282° West 482 555 35,300 585 Climbing FlightAware UK
Sun 08:46:51 AM 56.5290 -4.8070 282° West 447 514 35,400 387 Climbing FlightAware ADS-B
Sun 08:47:29 AM 56.5440 -4.9440 282° West 450 518 35,700 429 Climbing FlightAware ADS-B
Sun 08:47:33 AM 56.5465 -4.9655 282° West 480 552 35,700 353 Level FlightAware UK
Sun 08:48:03 AM 56.5589 -5.0769 282° West 482 555 35,900 333 Climbing FlightAware UK
Sun 08:48:09 AM 56.5590 -5.0740 282° West 452 520 35,900 167 Level FlightAware ADS-B
Sun 08:48:39 AM 56.5737 -5.2103 282° West 484 557 36,000 136 Climbing FlightAware UK
Sun 08:48:53 AM 56.5790 -5.2590 282° West 455 524 36,000 -200 Level FlightAware ADS-B
Sun 08:49:09 AM 56.5859 -5.3225 282° West 484 557 35,900  Descending FlightAware UK
Sun 08:49:38 AM 56.5970 -5.4290 281° West 454 522 36,000  Climbing FlightAware ADS-B
Sun 08:49:39 AM 56.5980 -5.4349 281° West 482 555 35,900 -194 Descending FlightAware UK
Sun 08:50:09 AM 56.6100 -5.5472 281° West 482 555 35,900 136 Level FlightAware UK
Sun 08:50:23 AM 56.6150 -5.5980 281° West 457 526 36,000 200 Climbing FlightAware ADS-B
Sun 08:50:39 AM 56.6220 -5.6598 281° West 484 557 36,000  Level FlightAware UK
Sun 08:50:58 AM 56.6290 -5.7290 281° West 458 527 36,000 -100 Level FlightAware ADS-B
Sun 08:51:39 AM 56.6455 -5.8857 281° West 484 557 35,900  Descending FlightAware UK
Sun 08:51:43 AM 56.6470 -5.8950 281° West 458 527 36,000  Climbing FlightAware ADS-B
Sun 08:52:09 AM 56.6572 -5.9989 281° West 480 552 35,900  Descending FlightAware UK
Sun 08:52:25 AM 56.6630 -6.0560 281° West 459 528 36,000 105 Climbing FlightAware ADS-B
Sun 08:53:06 AM 56.6780 -6.2070 281° West 461 531 36,000  Level FlightAware ADS-B
Sun 08:53:09 AM 56.6804 -6.2260 281° West 486 559 36,000 -182 Level FlightAware UK
Sun 08:53:39 AM 56.6918 -6.3402 281° West 484 557 35,900  Descending FlightAware UK
Sun 08:53:50 AM 56.6960 -6.3790 281° West 461 531 36,000  Climbing FlightAware ADS-B
Sun 08:54:15 AM 56.7053 -6.4767 281° West 486 559 35,900  Descending FlightAware UK
Sun 08:54:46 AM 56.7160 -6.5920 280° West 462 532 36,000  Climbing FlightAware ADS-B
Sun 08:54:51 AM 56.7187 -6.6142 280° West 488 562 35,900 -171 Descending FlightAware UK
Sun 08:55:21 AM 56.7299 -6.7285 280° West 486 559 35,900 171 Level FlightAware UK
Sun 08:55:26 AM 56.7310 -6.7440 280° West 462 532 36,000 122 Climbing FlightAware ADS-B
Sun 08:56:10 AM 56.7480 -6.9160 280° West 462 532 36,000 -76 Level FlightAware ADS-B
Sun 08:56:45 AM 56.7603 -7.0502 280° West 488 562 35,900  Descending FlightAware UK
Sun 08:56:50 AM 56.7610 -7.0620 280° West 462 532 36,000  Climbing FlightAware ADS-B
Sun 08:57:15 AM 56.7711 -7.1656 280° West 488 562 35,900 -109 Descending FlightAware UK
Sun 08:57:45 AM 56.7819 -7.2810 280° West 488 562 35,900 188 Level FlightAware UK
Sun 08:57:47 AM 56.7820 -7.2810 280° West 463 533 36,000  Climbing FlightAware ADS-B
Sun 08:58:15 AM 56.7924 -7.3964 280° West 486 559 35,900  Descending FlightAware UK
Sun 08:58:32 AM 56.7980 -7.4590 280° West 463 533 36,000 143 Climbing FlightAware ADS-B
Sun 08:58:57 AM 56.8060 -7.5540 279° West 463 533 36,000 -125 Level FlightAware ADS-B
Sun 08:59:20 AM 56.8150 -7.6504 279° West 490 564 35,900  Descending FlightAware UK
Sun 08:59:42 AM 56.8220 -7.7300 279° West 463 533 36,000 105 Climbing FlightAware ADS-B
Sun 09:00:17 AM 56.8330 -7.8610 279° West 464 534 36,000 -158 Level FlightAware ADS-B
Sun 09:00:20 AM 56.8355 -7.8822 279° West 486 559 35,900 -182 Descending FlightAware UK
Sun 09:00:50 AM 56.8454 -7.9982 279° West 486 559 35,900 143 Level FlightAware UK
Sun 09:01:02 AM 56.8490 -8.0400 279° West 465 535 36,000  Climbing FlightAware ADS-B
Sun 09:01:20 AM 56.8552 -8.1146 279° West 488 562 35,900  Descending FlightAware UK
Sun 09:01:42 AM 56.8620 -8.1930 279° West 466 536 36,000  Climbing FlightAware ADS-B
Sun 09:02:20 AM 56.8748 -8.3483 279° West 488 562 35,900  Descending FlightAware UK
Sun 09:02:27 AM 56.8760 -8.3680 279° West 468 539 36,000  Climbing FlightAware ADS-B
Sun 09:02:50 AM 56.8846 -8.4653 279° West 490 564 35,900  Descending FlightAware UK
Sun 09:03:07 AM 56.8890 -8.5260 279° West 468 539 36,000 107 Climbing FlightAware ADS-B
Sun 09:03:46 AM 56.9000 -8.6600 279° West 468 539 36,000  Level FlightAware ADS-B
Sun 09:03:50 AM 56.9035 -8.6996 279° West 488 562 36,000  Level FlightAware UK
Sun 09:04:17 AM 56.9110 -8.7990 279° West 468 539 36,000  Level FlightAware ADS-B
Sun 09:04:20 AM 56.9126 -8.8168 279° West 486 559 36,000  Level FlightAware UK
Sun 09:04:56 AM 56.9236 -8.9570 279° West 488 562 36,000  Level FlightAware UK
Sun 09:05:02 AM 56.9230 -8.9550 279° West 470 541 36,000  Level FlightAware ADS-B
Sun 09:05:43 AM 56.9370 -9.1370 278° West 470 541 36,000  Level FlightAware ADS-B
Sun 09:06:15 AM 56.9440 -9.2310 278° West 470 541 36,000  Level FlightAware ADS-B
Sun 09:06:45 AM 56.9550 -9.3670 278° West 36,000  Level FlightAware ADS-B
Sun 09:07:55 AM 56.9760 -9.6540 278° West 470 541 36,000  Level FlightAware ADS-B
Sun 09:08:37 AM 56.9840 -9.7920 276° West 469 540 36,000  Level FlightAware ADS-B
Sun 09:09:37 AM 56.9960 -9.9940 276° West 469 540 36,000  Level FlightAware ADS-B
Sun 09:10:14 AM 57.0030 -10.1180 276° West 469 540 36,000  Level FlightAware ADS-B
Sun 09:10:53 AM 57.0100 -10.2500 276° West 469 540 36,000  Level FlightAware ADS-B
Sun 09:11:39 AM 57.0190 -10.4050 276° West 469 540 36,000  Level FlightAware ADS-B
Sun 09:11:55 AM 57.1550 -10.5460 331° Northwest 476 548 36,000  Level FlightAware ADS-B
Sun 09:12:35 AM 57.1910 -10.6940 294° West 475 547 36,000  Level FlightAware ADS-B
Sun 09:13:19 AM 57.2250 -10.8360 294° West 475 547 36,000  Level FlightAware ADS-B
Sun 09:13:55 AM 57.2530 -10.9500 294° West 475 547 36,000  Level FlightAware ADS-B
Sun 09:14:44 AM 57.2900 -11.1040 294° West 475 547 36,000  Level FlightAware ADS-B
Sun 09:15:20 AM 57.3170 -11.2180 294° West 475 547 36,000  Level FlightAware ADS-B
Sun 09:16:06 AM 57.3520 -11.3630 294° West 475 547 36,000  Level FlightAware ADS-B
Sun 09:17:06 AM 57.3980 -11.5530 294° West 475 547 36,000  Level FlightAware ADS-B
Sun 09:17:46 AM 57.4280 -11.6800 294° West 475 547 36,000  Level FlightAware ADS-B
Sun 09:18:33 AM 57.4640 -11.8290 294° West 475 547 36,000  Level FlightAware ADS-B
Sun 09:19:09 AM 57.4910 -11.9430 294° West 475 547 36,000  Level FlightAware ADS-B
Sun 09:19:45 AM 57.5180 -12.0580 294° West 475 547 36,000  Level FlightAware ADS-B
Sun 09:20:33 AM 57.5550 -12.2100 294° West 475 547 36,000  Level FlightAware ADS-B
Sun 09:21:22 AM 57.5920 -12.3660 294° West 475 547 36,000  Level FlightAware ADS-B
Sun 09:21:59 AM 57.6200 -12.4840 294° West 475 547 36,000  Level FlightAware ADS-B
Sun 09:22:35 AM 57.6480 -12.5990 295° West 475 547 36,000  Level FlightAware ADS-B
Sun 09:25:00 AM 57.7246 -13.1253 285° West  Level Estimated
Sun 09:26:00 AM 57.7556 -13.3438 285° West  Level Estimated
Sun 09:27:00 AM 57.7863 -13.5626 285° West  Level Estimated
Sun 09:28:00 AM 57.8166 -13.7818 285° West  Level Estimated
Sun 09:29:00 AM 57.8465 -14.0013 284° West  Level Estimated
Sun 09:30:00 AM 57.8760 -14.2212 284° West  Level Estimated
Sun 09:31:00 AM 57.9051 -14.4415 284° West  Level Estimated
Sun 09:32:00 AM 57.9339 -14.6621 284° West  Level Estimated
Sun 09:33:00 AM 57.9623 -14.8831 284° West  Level Estimated
Sun 09:34:00 AM 57.9903 -15.1044 284° West  Level Estimated
Sun 09:35:00 AM 58.0187 -15.3326 283° West  Level Estimated
Sun 09:36:00 AM 58.0467 -15.5608 283° West  Level Estimated
Sun 09:37:00 AM 58.0742 -15.7894 283° West  Level Estimated
Sun 09:38:00 AM 58.1014 -16.0184 283° West  Level Estimated
Sun 09:39:00 AM 58.1282 -16.2477 283° West  Level Estimated
Sun 09:40:00 AM 58.1545 -16.4773 282° West  Level Estimated
Sun 09:41:00 AM 58.1804 -16.7073 282° West  Level Estimated
Sun 09:42:00 AM 58.2059 -16.9377 282° West  Level Estimated
Sun 09:43:00 AM 58.2306 -17.1645 282° West  Level Estimated
Sun 09:44:00 AM 58.2549 -17.3917 282° West  Level Estimated
Sun 09:45:00 AM 58.2787 -17.6191 281° West  Level Estimated
Sun 09:46:00 AM 58.3022 -17.8469 281° West  Level Estimated
Sun 09:47:00 AM 58.3253 -18.0750 281° West  Level Estimated
Sun 09:48:00 AM 58.3479 -18.3033 281° West  Level Estimated
Sun 09:49:00 AM 58.3702 -18.5320 281° West  Level Estimated
Sun 09:50:00 AM 58.3920 -18.7609 280° West  Level Estimated
Sun 09:51:00 AM 58.4134 -18.9902 280° West  Level Estimated
Sun 09:52:00 AM 58.4345 -19.2197 280° West  Level Estimated
Sun 09:52:00 AM 59.0000 -20.0000 285° West 442 509 36,000  Level ETMS Enhanced Traffic Management System
Sun 09:53:00 AM 58.4551 -19.4494 280° West  Level Estimated
Sun 09:54:00 AM 58.4753 -19.6799 280° West  Level Estimated
Sun 09:55:00 AM 58.4952 -19.9107 279° West  Level Estimated
Sun 09:56:00 AM 58.5146 -20.1416 279° West  Level Estimated
Sun 09:57:00 AM 58.5336 -20.3729 279° West  Level Estimated
Sun 09:58:00 AM 58.5521 -20.6044 279° West  Level Estimated
Sun 09:59:00 AM 59.2191 -21.6225 284° West 442 509 36,000  Level FlightAware Transoceanic
Sun 10:00:00 AM 59.2487 -21.8559 284° West 442 509 36,000  Level FlightAware Transoceanic
Sun 10:01:00 AM 59.2779 -22.0898 284° West 442 509 36,000  Level FlightAware Transoceanic
Sun 10:02:00 AM 59.3067 -22.3240 283° West 442 509 36,000  Level FlightAware Transoceanic
Sun 10:03:00 AM 59.3351 -22.5587 283° West 442 509 36,000  Level FlightAware Transoceanic
Sun 10:04:00 AM 59.3630 -22.7937 283° West 442 509 36,000  Level FlightAware Transoceanic
Sun 10:05:00 AM 59.3906 -23.0291 283° West 442 509 36,000  Level FlightAware Transoceanic
Sun 10:06:00 AM 59.4177 -23.2649 283° West 442 509 36,000  Level FlightAware Transoceanic
Sun 10:07:00 AM 59.4444 -23.5011 282° West 442 509 36,000  Level FlightAware Transoceanic
Sun 10:08:00 AM 59.4706 -23.7376 282° West 442 509 36,000  Level FlightAware Transoceanic
Sun 10:09:00 AM 59.4964 -23.9746 282° West 442 509 36,000  Level FlightAware Transoceanic
Sun 10:10:00 AM 59.5218 -24.2118 282° West 442 509 36,000  Level FlightAware Transoceanic
Sun 10:11:00 AM 59.5468 -24.4494 282° West 442 509 36,000  Level FlightAware Transoceanic
Sun 10:12:00 AM 59.5713 -24.6874 281° West 442 509 36,000  Level FlightAware Transoceanic
Sun 10:13:00 AM 59.5954 -24.9257 281° West 442 509 36,000  Level FlightAware Transoceanic
Sun 10:14:00 AM 59.6191 -25.1644 281° West 442 509 36,000  Level FlightAware Transoceanic
Sun 10:15:00 AM 59.6423 -25.4034 281° West 442 509 36,000  Level FlightAware Transoceanic
Sun 10:16:00 AM 59.6651 -25.6427 281° West 442 509 36,000  Level FlightAware Transoceanic
Sun 10:17:00 AM 59.6875 -25.8823 280° West 442 509 36,000  Level FlightAware Transoceanic
Sun 10:18:00 AM 59.7094 -26.1223 280° West 442 509 36,000  Level FlightAware Transoceanic
Sun 10:19:00 AM 59.7309 -26.3626 280° West 442 509 36,000  Level FlightAware Transoceanic
Sun 10:20:00 AM 59.7519 -26.6031 280° West 442 509 36,000  Level FlightAware Transoceanic
Sun 10:21:00 AM 59.7725 -26.8440 280° West 442 509 36,000  Level FlightAware Transoceanic
Sun 10:22:00 AM 59.7927 -27.0852 279° West 442 509 36,000  Level FlightAware Transoceanic
Sun 10:23:00 AM 59.8124 -27.3266 279° West 442 509 36,000  Level FlightAware Transoceanic
Sun 10:24:00 AM 59.8317 -27.5684 279° West 442 509 36,000  Level FlightAware Transoceanic
Sun 10:25:00 AM 59.8506 -27.8104 279° West 442 509 36,000  Level FlightAware Transoceanic
Sun 10:26:00 AM 59.8689 -28.0527 278° West 442 509 36,000  Level FlightAware Transoceanic
Sun 10:27:00 AM 59.8869 -28.2952 278° West 442 509 36,000  Level FlightAware Transoceanic
Sun 10:28:00 AM 59.9044 -28.5380 278° West 442 509 36,000  Level FlightAware Transoceanic
Sun 10:29:00 AM 59.9215 -28.7811 278° West 442 509 36,000  Level FlightAware Transoceanic
Sun 10:30:00 AM 59.9381 -29.0244 278° West 442 509 36,000  Level FlightAware Transoceanic
Sun 10:31:00 AM 59.9542 -29.2680 277° West 442 509 36,000  Level FlightAware Transoceanic
Sun 10:32:00 AM 59.9699 -29.5117 277° West 442 509 36,000  Level FlightAware Transoceanic
Sun 10:33:00 AM 59.9852 -29.7558 277° West 442 509 36,000 35 Level FlightAware Transoceanic
Sun 10:34:00 AM 59.9999 -29.9984 277° West  Level FlightAware Approximate
Sun 10:35:00 AM 60.0148 -30.2411 277° West  Level FlightAware Approximate
Sun 10:36:00 AM 60.0089 -30.2406 274° West  Level FlightAware Approximate
Sun 10:37:00 AM 60.0175 -30.4846 274° West  Level FlightAware Approximate
Sun 10:38:00 AM 60.0256 -30.7291 274° West  Level FlightAware Approximate
Sun 10:39:00 AM 60.0333 -30.9738 274° West  Level FlightAware Approximate
Sun 10:40:00 AM 60.0405 -31.2185 273° West  Level FlightAware Approximate
Sun 10:41:00 AM 60.0473 -31.4634 273° West  Level FlightAware Approximate
Sun 10:42:00 AM 60.0536 -31.7084 273° West  Level FlightAware Approximate
Sun 10:43:00 AM 60.0595 -31.9534 273° West  Level FlightAware Approximate
Sun 10:44:00 AM 60.0649 -32.1986 273° West  Level FlightAware Approximate
Sun 10:45:00 AM 60.0698 -32.4438 272° West  Level FlightAware Approximate
Sun 10:46:00 AM 60.0743 -32.6891 272° West  Level FlightAware Approximate
Sun 10:47:00 AM 60.0784 -32.9345 272° West  Level FlightAware Approximate
Sun 10:48:00 AM 60.0820 -33.1799 272° West  Level FlightAware Approximate
Sun 10:49:00 AM 60.0851 -33.4254 272° West  Level FlightAware Approximate
Sun 10:50:00 AM 60.0878 -33.6709 271° West  Level FlightAware Approximate
Sun 10:51:00 AM 60.0901 -33.9164 271° West  Level FlightAware Approximate
Sun 10:52:00 AM 60.0919 -34.1620 271° West  Level FlightAware Approximate
Sun 10:53:00 AM 60.0932 -34.4076 271° West  Level FlightAware Approximate
Sun 10:54:00 AM 60.0941 -34.6532 271° West  Level FlightAware Approximate
Sun 10:55:00 AM 60.0945 -34.8989 270° West  Level FlightAware Approximate
Sun 10:56:00 AM 60.0944 -35.1445 270° West  Level FlightAware Approximate
Sun 10:57:00 AM 60.0939 -35.3901 270° West  Level FlightAware Approximate
Sun 10:58:00 AM 60.0930 -35.6357 270° West  Level FlightAware Approximate
Sun 10:59:00 AM 60.0916 -35.8813 269° West  Level FlightAware Approximate
Sun 11:00:00 AM 60.0897 -36.1269 269° West  Level FlightAware Approximate
Sun 11:00:26 AM 60.1000 -35.7833 268° West 450 518 37,000  Level Gander Center
Sun 11:01:00 AM 60.0874 -36.3724 269° West  Level FlightAware Approximate
Sun 11:01:26 AM 60.1000 -36.0333 270° West 450 518 37,000  Level Gander Center
Sun 11:02:00 AM 60.0846 -36.6179 269° West  Level FlightAware Approximate
Sun 11:02:26 AM 60.0833 -36.2500 261° West 450 518 37,000  Level Gander Center
Sun 11:03:00 AM 60.0814 -36.8634 269° West  Level FlightAware Approximate
Sun 11:03:26 AM 60.1000 -36.4833 278° West 450 518 37,000  Level Gander Center
Sun 11:04:00 AM 60.0777 -37.1088 268° West  Level FlightAware Approximate
Sun 11:04:26 AM 60.0833 -36.7333 262° West 450 518 37,000  Level Gander Center
Sun 11:05:00 AM 60.0736 -37.3542 268° West  Level FlightAware Approximate
Sun 11:05:26 AM 60.0833 -36.9833 270° West 450 518 37,000  Level Gander Center
Sun 11:06:26 AM 60.0833 -37.2333 270° West 450 518 37,000  Level Gander Center
Sun 11:07:26 AM 60.0667 -37.4833 262° West 450 518 37,000  Level Gander Center
Sun 11:08:26 AM 60.0833 -37.7167 278° West 450 518 37,000  Level Gander Center
Sun 11:09:26 AM 60.0667 -37.9667 262° West 450 518 37,000  Level Gander Center
Sun 11:10:26 AM 60.0667 -38.2167 270° West 450 518 37,000  Level Gander Center
Sun 11:11:26 AM 60.0500 -38.4667 263° West 450 518 37,000  Level Gander Center
Sun 11:12:26 AM 60.0500 -38.7167 270° West 450 518 37,000  Level Gander Center
Sun 11:13:26 AM 60.0500 -38.9667 270° West 450 518 37,000  Level Gander Center
Sun 11:14:26 AM 60.0333 -39.2167 263° West 450 518 37,000  Level Gander Center
Sun 11:15:26 AM 60.0333 -39.4667 270° West 450 518 37,000  Level Gander Center
Sun 11:16:26 AM 60.0167 -39.7167 263° West 450 518 37,000  Level Gander Center
Sun 11:17:26 AM 60.0000 -39.9667 263° West 450 518 37,000  Level Gander Center
Sun 11:18:26 AM 60.0000 -40.2167 270° West 450 518 37,000  Level Gander Center
Sun 11:19:26 AM 59.9833 -40.4667 263° West 450 518 37,000  Level Gander Center
Sun 11:20:26 AM 59.9667 -40.7167 263° West 450 518 37,000  Level Gander Center
Sun 11:21:26 AM 59.9500 -40.9333 261° West 460 529 37,000  Level Gander Center
Sun 11:22:26 AM 59.9167 -41.1833 255° West 460 529 37,000  Level Gander Center
Sun 11:23:26 AM 59.9167 -41.4667 270° West 460 529 37,000  Level Gander Center
Sun 11:24:26 AM 59.9000 -41.7167 263° West 470 541 37,000  Level Gander Center
Sun 11:25:26 AM 59.8833 -41.9667 263° West 470 541 37,000  Level Gander Center
Sun 11:26:26 AM 59.8667 -42.2167 263° West 470 541 37,000  Level Gander Center
Sun 11:27:26 AM 59.8333 -42.4667 255° West 470 541 37,000  Level Gander Center
Sun 11:28:26 AM 59.8167 -42.7167 263° West 470 541 37,000  Level Gander Center
Sun 11:29:26 AM 59.8000 -42.9667 263° West 470 541 37,000  Level Gander Center
Sun 11:30:26 AM 59.7833 -43.2167 263° West 470 541 37,000  Level Gander Center
Sun 11:31:26 AM 59.7500 -43.4667 255° West 470 541 37,000  Level Gander Center
Sun 11:32:26 AM 59.7333 -43.7167 263° West 460 529 37,000  Level Gander Center
Sun 11:33:26 AM 59.7000 -43.9667 255° West 470 541 37,000  Level Gander Center
Sun 11:34:00 AM 60.0000 -40.0000 263° West 453 521 37,000  Level ETMS Enhanced Traffic Management System
Sun 11:34:26 AM 59.6833 -44.2000 263° West 470 541 37,000  Level Gander Center
Sun 11:35:26 AM 59.6500 -44.4833 257° West 470 541 37,000  Level Gander Center
Sun 11:36:26 AM 59.6333 -44.7333 263° West 470 541 37,000  Level Gander Center
Sun 11:37:26 AM 59.6167 -44.9833 263° West 470 541 37,000  Level Gander Center
Sun 11:38:26 AM 59.6000 -45.2333 263° West 470 541 37,000  Level Gander Center
Sun 11:39:26 AM 59.5500 -45.4833 249° West 470 541 37,000  Level Gander Center
Sun 11:40:26 AM 59.5333 -45.7167 262° West 470 541 37,000  Level Gander Center
Sun 11:41:26 AM 59.5167 -45.9667 263° West 470 541 37,000  Level Gander Center
Sun 11:42:26 AM 59.4833 -46.2167 255° West 470 541 37,000  Level Gander Center
Sun 11:43:26 AM 59.4500 -46.5000 257° West 470 541 37,000  Level Gander Center
Sun 11:44:26 AM 59.4333 -46.7333 262° West 480 552 37,000  Level Gander Center
Sun 11:45:26 AM 59.4000 -46.9833 255° West 480 552 37,000  Level Gander Center
Sun 11:46:26 AM 59.3667 -47.2333 255° West 480 552 37,000  Level Gander Center
Sun 11:47:26 AM 59.3333 -47.4667 254° West 480 552 37,000  Level Gander Center
Sun 11:48:26 AM 59.3167 -47.7500 264° West 480 552 37,000  Level Gander Center
Sun 11:49:26 AM 59.2667 -48.0000 249° West 480 552 37,000  Level Gander Center
Sun 11:50:26 AM 59.2500 -48.2333 262° West 480 552 37,000  Level Gander Center
Sun 11:51:26 AM 59.2167 -48.5167 257° West 490 564 37,000  Level Gander Center
Sun 11:52:26 AM 59.1667 -48.7500 247° West 490 564 37,000  Level Gander Center
Sun 11:53:26 AM 59.1500 -49.0333 264° West 490 564 37,000  Level Gander Center
Sun 11:54:26 AM 59.1000 -49.2667 247° West 490 564 37,000  Level Gander Center
Sun 11:55:26 AM 59.0667 -49.5167 256° West 490 564 37,000  Level Gander Center
Sun 11:56:26 AM 59.0500 -49.7833 263° West 500 575 37,000  Level Gander Center
Sun 11:57:26 AM 59.0000 -50.0333 249° West 500 575 37,000  Level Gander Center
Sun 11:58:26 AM 58.9500 -50.3000 250° West 500 575 37,000  Level Gander Center
Sun 11:59:26 AM 58.9167 -50.5333 255° West 500 575 37,000  Level Gander Center
Sun 12:00:26 PM 58.8833 -50.8167 257° West 500 575 37,000  Level Gander Center
Sun 12:01:26 PM 58.8500 -51.0500 255° West 500 575 37,000  Level Gander Center
Sun 12:02:26 PM 58.8000 -51.3167 250° West 500 575 37,000  Level Gander Center
Sun 12:03:26 PM 58.7667 -51.5500 255° West 500 575 37,000  Level Gander Center
Sun 12:04:26 PM 58.7167 -51.8333 251° West 500 575 37,000  Level Gander Center
Sun 12:05:19 PM 58.6833 -52.0667 255° West 500 575 37,000  Level Gander Center
Sun 12:06:19 PM 58.6333 -52.3000 248° West 500 575 37,000  Level Gander Center
Sun 12:07:19 PM 58.5833 -52.5667 250° West 500 575 37,000  Level Gander Center
Sun 12:08:19 PM 58.5500 -52.8000 255° West 510 587 37,000  Level Gander Center
Sun 12:09:19 PM 58.5000 -53.0667 250° West 510 587 37,000  Level Gander Center
Sun 12:10:19 PM 58.4500 -53.3333 250° West 510 587 37,000  Level Gander Center
Sun 12:11:19 PM 58.4167 -53.5667 255° West 510 587 37,000  Level Gander Center
Sun 12:13:00 PM 58.3724 -53.9335 257° West  Level FlightAware Approximate
Sun 12:14:49 PM 59.0000 -50.0000 254° West 502 578 37,000  Level ETMS Enhanced Traffic Management System
Sun 12:15:46 PM 58.1833 -54.7000 248° West 520 598 37,000  Level Gander Center
Sun 12:16:46 PM 58.1333 -54.9667 251° West 520 598 37,000  Level Gander Center
Sun 12:17:46 PM 58.1000 -55.2167 256° West 520 598 37,000  Level Gander Center
Sun 12:18:46 PM 58.0500 -55.4833 251° West 520 598 37,000  Level Gander Center
Sun 12:19:46 PM 57.9833 -55.7167 242° Southwest 500 575 37,000  Level Gander Center
Sun 12:20:00 PM 57.9067 -56.0526 248° West 502 578 37,000 100 Level FlightAware Transoceanic
Sun 12:20:46 PM 57.9500 -55.9667 256° West 510 587 37,100  Climbing Gander Center
Sun 12:21:00 PM 57.8551 -56.2964 248° West 502 578 37,000 300 Descending FlightAware Transoceanic
Sun 12:21:46 PM 57.8833 -56.2000 242° Southwest 510 587 37,400 566 Climbing Gander Center
Sun 12:22:46 PM 57.8333 -56.4500 250° West 510 587 38,000 300 Climbing Gander Center
Sun 12:23:46 PM 57.7667 -56.7167 245° Southwest 500 575 38,000  Level Gander Center
Sun 12:24:46 PM 57.7333 -56.9333 254° West 500 575 38,000  Level Gander Center
Sun 12:25:46 PM 57.6667 -57.1667 242° Southwest 500 575 38,000  Level Gander Center
Sun 12:26:46 PM 57.6167 -57.4167 250° West 500 575 38,000  Level Gander Center
Sun 12:27:46 PM 57.5667 -57.6500 248° West 500 575 38,000  Level Gander Center
Sun 12:28:46 PM 57.5167 -57.8667 247° West 510 587 38,000  Level Gander Center
Sun 12:29:46 PM 57.4500 -58.0833 240° Southwest 510 587 38,000  Level Gander Center
Sun 12:30:46 PM 57.4000 -58.3167 248° West 500 575 38,000  Level Gander Center
Sun 12:31:46 PM 57.3333 -58.5667 244° Southwest 490 564 38,000  Level Gander Center
Sun 12:32:46 PM 57.2833 -58.8167 250° West 500 575 38,000  Level Gander Center
Sun 12:33:46 PM 57.2333 -59.0333 247° West 500 575 38,000  Level Gander Center
Sun 12:34:58 PM 57.1667 -59.3167 247° West 490 564 38,000  Level Gander Center
Sun 12:35:46 PM 57.1333 -59.5000 252° West 490 564 38,000  Level Gander Center
Sun 12:36:58 PM 57.1000 -59.8333 260° West 490 564 38,000  Level Gander Center
Sun 12:37:46 PM 57.0667 -60.0167 252° West 490 564 38,000  Level Gander Center
Sun 12:38:46 PM 57.0167 -60.2667 250° West 490 564 38,000  Level Gander Center
Sun 12:39:46 PM 56.9833 -60.5167 256° West 490 564 38,000  Level Gander Center
Sun 12:40:46 PM 56.9333 -60.7667 250° West 500 575 38,000  Level Gander Center
Sun 12:41:46 PM 56.9000 -61.0000 255° West 500 575 38,000  Level Gander Center
Sun 12:42:46 PM 56.8500 -61.2500 250° West 500 575 38,000  Level Gander Center
Sun 12:43:46 PM 56.8000 -61.4667 247° West 500 575 38,000  Level Gander Center
Sun 12:44:58 PM 56.7500 -61.7667 253° West 500 575 38,000  Level Gander Center
Sun 12:45:58 PM 56.7000 -62.0167 250° West 500 575 38,000  Level Gander Center
Sun 12:46:46 PM 56.6667 -62.2000 252° West 500 575 38,000  Level Gander Center
Sun 12:47:46 PM 56.6333 -62.4333 256° West 490 564 38,000  Level Gander Center
Sun 12:48:46 PM 56.5833 -62.6833 250° West 500 575 38,000  Level Gander Center
Sun 12:49:46 PM 56.5500 -62.8833 253° West 490 564 38,000  Level Gander Center
Sun 12:50:46 PM 56.4833 -63.1333 244° Southwest 510 587 38,000  Level Gander Center
Sun 12:51:46 PM 56.4500 -63.3667 256° West 480 552 38,000  Level Gander Center
Sun 12:52:46 PM 56.4000 -63.6000 249° West 500 575 38,000  Level Gander Center
Sun 12:53:46 PM 56.3667 -63.8500 257° West 500 575 38,000  Level Gander Center
Sun 12:54:46 PM 56.3000 -64.0833 243° Southwest 490 564 38,000  Level Gander Center
Sun 12:55:46 PM 56.2500 -64.2833 246° West 490 564 38,000  Level Gander Center
Sun 12:56:46 PM 56.2167 -64.5167 256° West 490 564 38,000  Level Gander Center
Sun 12:57:46 PM 56.1500 -64.7667 245° Southwest 500 575 38,000  Level Gander Center
Sun 12:58:46 PM 56.1167 -65.0000 256° West 490 564 38,000  Level Gander Center
Sun 12:59:46 PM 56.0667 -65.2000 246° West 490 564 38,000  Level Gander Center
Sun 01:00:46 PM 56.0000 -65.4333 243° Southwest 490 564 38,000  Level Gander Center
Sun 01:01:46 PM 55.9667 -65.6667 256° West 490 564 38,000  Level Gander Center
Sun 01:02:46 PM 55.9000 -65.9000 243° Southwest 490 564 38,000  Level Gander Center
Sun 01:03:46 PM 55.8667 -66.1000 254° West 480 552 38,000  Level Gander Center
Sun 01:04:46 PM 55.8000 -66.3333 243° Southwest 490 564 38,000  Level Gander Center
Sun 01:05:25 PM 55.7667 -66.4500 243° Southwest 490 564 38,000  Level Montreal Center
Sun 01:05:46 PM 55.7333 -66.5667 243° Southwest 500 575 38,000  Level Gander Center
Sun 01:06:25 PM 55.7167 -66.6500 250° West 470 541 38,000  Level Montreal Center
Sun 01:07:25 PM 55.6667 -66.9000 251° West 490 564 38,000  Level Montreal Center
Sun 01:07:46 PM 55.6333 -67.0000 239° Southwest 470 541 38,000  Level Gander Center
Sun 01:08:25 PM 55.6000 -67.1000 239° Southwest 470 541 38,000  Level Montreal Center
Sun 01:09:25 PM 55.5500 -67.3167 248° West 480 552 38,000  Level Montreal Center
Sun 01:09:46 PM 55.5167 -67.4167 240° Southwest 480 552 38,000  Level Gander Center
Sun 01:10:46 PM 55.4333 -67.6167 234° Southwest 480 552 38,000  Level Gander Center
Sun 01:11:46 PM 55.3833 -67.8167 246° West 480 552 38,000  Level Gander Center
Sun 01:12:46 PM 55.3167 -68.0333 242° Southwest 480 552 38,000  Level Gander Center
Sun 01:13:46 PM 55.2333 -68.2333 234° Southwest 480 552 38,000  Level Gander Center
Sun 01:14:25 PM 55.2000 -68.3167 235° Southwest 470 541 38,000  Level Montreal Center
Sun 01:14:46 PM 55.1833 -68.4333 256° West 480 552 38,000  Level Gander Center
Sun 01:15:46 PM 55.1167 -68.6167 238° Southwest 480 552 38,000  Level Gander Center
Sun 01:16:46 PM 55.0333 -68.8167 234° Southwest 480 552 38,000  Level Gander Center
Sun 01:17:25 PM 55.0000 -68.9167 240° Southwest 480 552 38,000  Level Montreal Center
Sun 01:17:46 PM 54.9833 -69.0333 256° West 480 552 38,000  Level Gander Center
Sun 01:18:25 PM 54.9333 -69.1333 229° Southwest 480 552 38,000  Level Montreal Center
Sun 01:19:25 PM 54.8667 -69.3167 238° Southwest 470 541 38,000  Level Montreal Center
Sun 01:20:25 PM 54.8000 -69.5000 238° Southwest 460 529 38,000  Level Montreal Center
Sun 01:20:46 PM 54.7667 -69.6333 247° West 480 552 38,000  Level Gander Center
Sun 01:21:46 PM 54.6833 -69.8167 232° Southwest 480 552 38,000  Level Gander Center
Sun 01:22:25 PM 54.6500 -69.9000 235° Southwest 480 552 38,000  Level Montreal Center
Sun 01:23:25 PM 54.5833 -70.1167 242° Southwest 480 552 38,000  Level Montreal Center
Sun 01:23:46 PM 54.5667 -70.2333 256° West 480 552 38,000  Level Gander Center
Sun 01:24:46 PM 54.4833 -70.4167 232° Southwest 480 552 38,000  Level Gander Center
Sun 01:25:25 PM 54.4500 -70.4833 229° Southwest 470 541 38,000  Level Montreal Center
Sun 01:26:50 PM 54.3333 -70.7667 235° Southwest 490 564 38,000  Level Montreal Center
Sun 01:27:50 PM 54.2667 -70.9667 240° Southwest 470 541 38,000  Level Montreal Center
Sun 01:28:50 PM 54.1833 -71.1500 232° Southwest 470 541 38,000  Level Montreal Center
Sun 01:29:50 PM 54.1333 -71.3333 245° Southwest 470 541 38,000  Level Montreal Center
Sun 01:30:50 PM 54.0500 -71.5500 237° Southwest 470 541 38,000  Level Montreal Center
Sun 01:31:50 PM 53.9667 -71.7333 232° Southwest 470 541 38,000  Level Montreal Center
Sun 01:32:38 PM 53.9167 -71.9000 243° Southwest 480 552 38,000  Level Gander Center
Sun 01:33:38 PM 53.8333 -72.1000 235° Southwest 470 541 38,000  Level Gander Center
Sun 01:34:38 PM 53.7667 -72.2833 238° Southwest 470 541 38,000  Level Gander Center
Sun 01:35:38 PM 53.7000 -72.4667 238° Southwest 470 541 38,000  Level Gander Center
Sun 01:36:38 PM 53.6333 -72.6500 239° Southwest 470 541 38,000  Level Gander Center
Sun 01:37:38 PM 53.5500 -72.8167 230° Southwest 470 541 38,000  Level Gander Center
Sun 01:38:38 PM 53.4833 -73.0333 243° Southwest 470 541 38,000  Level Gander Center
Sun 01:39:38 PM 53.4167 -73.2167 239° Southwest 470 541 38,000  Level Gander Center
Sun 01:40:38 PM 53.3333 -73.3833 230° Southwest 470 541 38,000  Level Gander Center
Sun 01:41:38 PM 53.2500 -73.5667 233° Southwest 470 541 38,000  Level Gander Center
Sun 01:42:38 PM 53.1833 -73.7333 236° Southwest 470 541 38,000  Level Gander Center
Sun 01:43:38 PM 53.1000 -73.9167 233° Southwest 470 541 38,000  Level Gander Center
Sun 01:44:38 PM 53.0333 -74.0833 236° Southwest 480 552 38,000  Level Gander Center
Sun 01:45:38 PM 52.9667 -74.2667 239° Southwest 470 541 38,000  Level Gander Center
Sun 01:46:38 PM 52.9000 -74.4333 236° Southwest 470 541 38,000  Level Gander Center
Sun 01:47:50 PM 52.8000 -74.6333 230° Southwest 460 529 38,000  Level Montreal Center
Sun 01:48:50 PM 52.7167 -74.8000 231° Southwest 460 529 38,000  Level Montreal Center
Sun 01:49:50 PM 52.6500 -74.9667 237° Southwest 470 541 38,000  Level Montreal Center
Sun 01:50:50 PM 52.5667 -75.1333 231° Southwest 450 518 38,000  Level Montreal Center
Sun 01:51:50 PM 52.5000 -75.3000 237° Southwest 460 529 38,000  Level Montreal Center
Sun 01:52:50 PM 52.4167 -75.4667 231° Southwest 460 529 38,000  Level Montreal Center
Sun 01:53:50 PM 52.3333 -75.6333 231° Southwest 460 529 38,000  Level Montreal Center
Sun 01:54:50 PM 52.2667 -75.8000 237° Southwest 450 518 38,000  Level Montreal Center
Sun 01:55:50 PM 52.1833 -76.0000 236° Southwest 460 529 38,000  Level Montreal Center
Sun 01:56:50 PM 52.1167 -76.1500 234° Southwest 450 518 38,000  Level Montreal Center
Sun 01:57:50 PM 52.0333 -76.3167 231° Southwest 460 529 38,000  Level Montreal Center
Sun 01:58:50 PM 51.9667 -76.4833 237° Southwest 450 518 38,000  Level Montreal Center
Sun 01:59:50 PM 51.8667 -76.6500 226° Southwest 460 529 38,000  Level Montreal Center
Sun 02:00:50 PM 51.8000 -76.8167 237° Southwest 460 529 38,000  Level Montreal Center
Sun 02:01:50 PM 51.7167 -76.9667 228° Southwest 460 529 38,000  Level Montreal Center
Sun 02:02:50 PM 51.6333 -77.1500 234° Southwest 460 529 38,000  Level Montreal Center
Sun 02:03:50 PM 51.5667 -77.3167 237° Southwest 450 518 38,000  Level Montreal Center
Sun 02:04:50 PM 51.4833 -77.4833 231° Southwest 450 518 38,000  Level Montreal Center
Sun 02:05:50 PM 51.4167 -77.6333 235° Southwest 460 529 38,000  Level Montreal Center
Sun 02:06:50 PM 51.3167 -77.8000 226° Southwest 450 518 38,000  Level Montreal Center
Sun 02:07:50 PM 51.2500 -77.9500 235° Southwest 450 518 38,000  Level Montreal Center
Sun 02:08:50 PM 51.1667 -78.1167 231° Southwest 450 518 38,000  Level Montreal Center
Sun 02:09:50 PM 51.1000 -78.2667 235° Southwest 450 518 38,000  Level Montreal Center
Sun 02:10:50 PM 51.0167 -78.4333 232° Southwest 460 529 38,000  Level Montreal Center
Sun 02:11:50 PM 50.9333 -78.5833 229° Southwest 460 529 38,000  Level Montreal Center
Sun 02:12:50 PM 50.8500 -78.7333 229° Southwest 460 529 38,000  Level Montreal Center
Sun 02:13:50 PM 50.7667 -78.9167 234° Southwest 450 518 38,000  Level Montreal Center
Sun 02:14:50 PM 50.6833 -79.0500 225° Southwest 450 518 38,000  Level Montreal Center
Sun 02:15:50 PM 50.6000 -79.2000 229° Southwest 450 518 38,000  Level Montreal Center
Sun 02:16:14 PM 50.5833 -79.2333 232° Southwest 470 541 38,000  Level Toronto Center
Sun 02:16:50 PM 50.5333 -79.3833 242° Southwest 450 518 38,000  Level Montreal Center
Sun 02:17:50 PM 50.4500 -79.5333 229° Southwest 450 518 38,000  Level Montreal Center
Sun 02:18:50 PM 50.3667 -79.6833 229° Southwest 460 529 38,000  Level Montreal Center
Sun 02:19:14 PM 50.3333 -79.7000 198° South 460 529 38,000  Level Toronto Center
Sun 02:20:14 PM 50.2667 -79.8667 238° Southwest 460 529 38,000  Level Toronto Center
Sun 02:21:14 PM 50.1667 -80.0167 224° Southwest 460 529 38,000  Level Toronto Center
Sun 02:21:50 PM 50.1000 -80.1167 224° Southwest 460 529 38,000  Level Montreal Center
Sun 02:22:14 PM 50.0667 -80.1500 213° Southwest 470 541 38,000  Level Toronto Center
Sun 02:23:14 PM 49.9667 -80.2833 221° Southwest 460 529 38,000  Level Toronto Center
Sun 02:23:50 PM 49.9000 -80.3833 224° Southwest 460 529 38,000  Level Montreal Center
Sun 02:24:14 PM 49.8667 -80.3833 180° South 460 529 38,000  Level Toronto Center
Sun 02:25:14 PM 49.7667 -80.5000 217° Southwest 460 529 38,000  Level Toronto Center
Sun 02:26:14 PM 49.6667 -80.6333 221° Southwest 460 529 38,000  Level Toronto Center
Sun 02:27:14 PM 49.5500 -80.7667 217° Southwest 470 541 38,000  Level Toronto Center
Sun 02:28:14 PM 49.4500 -80.8833 217° Southwest 460 529 38,000  Level Toronto Center
Sun 02:29:14 PM 49.3500 -81.0167 221° Southwest 460 529 38,000  Level Toronto Center
Sun 02:30:14 PM 49.2667 -81.1167 218° Southwest 460 529 38,000  Level Toronto Center
Sun 02:31:14 PM 49.1500 -81.2333 213° Southwest 460 529 38,000  Level Toronto Center
Sun 02:32:14 PM 49.0667 -81.3667 226° Southwest 460 529 38,000  Level Toronto Center
Sun 02:33:14 PM 48.9500 -81.4833 213° Southwest 460 529 38,000  Level Toronto Center
Sun 02:34:14 PM 48.8667 -81.6000 223° Southwest 450 518 38,000  Level Toronto Center
Sun 02:35:14 PM 48.7667 -81.7333 221° Southwest 460 529 38,000  Level Toronto Center
Sun 02:36:14 PM 48.6667 -81.8167 209° Southwest 450 518 38,000  Level Toronto Center
Sun 02:37:14 PM 48.5667 -81.9500 221° Southwest 450 518 38,000  Level Toronto Center
Sun 02:38:14 PM 48.4500 -82.0667 214° Southwest 450 518 38,000  Level Toronto Center
Sun 02:39:14 PM 48.3500 -82.1667 214° Southwest 450 518 38,000  Level Toronto Center
Sun 02:40:14 PM 48.2500 -82.2833 218° Southwest 450 518 38,000  Level Toronto Center
Sun 02:41:14 PM 48.1667 -82.4000 223° Southwest 450 518 38,000  Level Toronto Center
Sun 02:42:14 PM 48.0500 -82.5167 214° Southwest 450 518 38,000  Level Toronto Center
Sun 02:47:36 PM 47.4610 -83.0250 214° Southwest 460 529 38,000  Level FlightAware ADS-B
Sun 02:48:24 PM 47.3690 -83.0980 208° Southwest 460 529 38,000  Level FlightAware ADS-B
Sun 02:49:11 PM 47.2830 -83.1670 209° Southwest 460 529 38,000  Level FlightAware ADS-B
Sun 02:49:51 PM 47.2080 -83.2270 209° Southwest 460 529 38,000  Level FlightAware ADS-B
Sun 02:50:25 PM 47.1440 -83.2780 208° Southwest 460 529 38,000  Level FlightAware ADS-B
Sun 02:51:11 PM 47.0580 -83.3460 208° Southwest 459 528 38,000  Level FlightAware ADS-B
Sun 02:51:43 PM 46.9990 -83.3930 209° Southwest 459 528 38,000  Level FlightAware ADS-B
Sun 02:52:13 PM 46.9430 -83.4370 208° Southwest 458 527 38,000  Level FlightAware ADS-B
Sun 02:53:00 PM 46.8560 -83.5050 208° Southwest 457 526 38,000  Level FlightAware ADS-B
Sun 02:53:25 PM 46.8090 -83.5420 208° Southwest 457 526 38,000  Level FlightAware ADS-B
Sun 02:54:08 PM 46.7300 -83.6040 208° Southwest 454 522 38,000  Level FlightAware ADS-B
Sun 02:54:49 PM 46.6590 -83.6760 215° Southwest 450 518 38,000  Level FlightAware ADS-B
Sun 02:55:29 PM 46.5920 -83.7460 216° Southwest 449 517 38,000  Level FlightAware ADS-B
Sun 02:56:07 PM 46.5280 -83.8150 217° Southwest 448 516 38,000  Level FlightAware ADS-B
Sun 02:56:51 PM 46.4550 -83.8900 215° Southwest 448 516 38,000  Level FlightAware ADS-B
Sun 02:57:25 PM 46.3970 -83.9490 215° Southwest 448 516 38,000  Level FlightAware ADS-B
Sun 02:58:13 PM 46.3170 -84.0330 216° Southwest 444 511 38,000  Level FlightAware ADS-B
Sun 02:58:53 PM 46.2500 -84.1030 216° Southwest 447 514 38,000  Level FlightAware ADS-B
Sun 02:59:17 PM 46.2060 -84.1390 210° Southwest 451 519 38,000  Level FlightAware ADS-B
Sun 02:59:49 PM 46.1440 -84.1800 205° Southwest 456 525 38,000  Level FlightAware ADS-B
Sun 03:00:37 PM 46.0520 -84.2350 203° Southwest 456 525 38,000  Level FlightAware ADS-B
Sun 03:01:19 PM 45.9710 -84.2840 203° Southwest 455 524 38,000  Level FlightAware ADS-B
Sun 03:02:03 PM 45.8860 -84.3360 203° Southwest 458 527 38,000 -136 Level FlightAware ADS-B
Sun 03:02:47 PM 45.8010 -84.3880 203° Southwest 458 527 37,800 -419 Descending FlightAware ADS-B
Sun 03:03:29 PM 45.7180 -84.4380 203° Southwest 452 520 37,400 -512 Descending FlightAware ADS-B
Sun 03:04:09 PM 45.6410 -84.4850 203° Southwest 444 511 37,100 -805 Descending FlightAware ADS-B
Sun 03:04:51 PM 45.5620 -84.5320 203° Southwest 446 513 36,300 -767 Descending FlightAware ADS-B
Sun 03:05:35 PM 45.4780 -84.5820 203° Southwest 442 509 36,000 -209 Descending FlightAware ADS-B
Sun 03:06:17 PM 45.3990 -84.6300 203° Southwest 443 510 36,000  Level FlightAware ADS-B
Sun 03:06:55 PM 45.3280 -84.6720 203° Southwest 445 512 36,000  Level FlightAware ADS-B
Sun 03:07:31 PM 45.2560 -84.7080 199° South 455 524 36,000  Level FlightAware ADS-B
Sun 03:08:15 PM 45.1670 -84.7380 193° South 459 528 36,000  Level FlightAware ADS-B
Sun 03:08:55 PM 45.0830 -84.7660 193° South 457 526 36,000  Level FlightAware ADS-B
Sun 03:09:39 PM 44.9950 -84.7950 193° South 456 525 36,000  Level FlightAware ADS-B
Sun 03:10:09 PM 44.9450 -84.8120 194° South 456 525 36,000  Level FlightAware ADS-B
Sun 03:10:49 PM 44.8510 -84.8430 193° South 453 521 36,000  Level FlightAware ADS-B
Sun 03:11:29 PM 44.7730 -84.8680 193° South 452 520 36,000  Level FlightAware ADS-B
Sun 03:12:13 PM 44.6820 -84.8980 193° South 450 518 36,000 -391 Level FlightAware ADS-B
Sun 03:13:01 PM 44.5820 -84.9310 193° South 450 518 35,400 -837 Descending FlightAware ADS-B
Sun 03:13:39 PM 44.5040 -84.9560 193° South 451 519 34,800 -975 Descending FlightAware ADS-B
Sun 03:14:21 PM 44.4190 -84.9840 193° South 456 525 34,100 -847 Descending FlightAware ADS-B
Sun 03:15:04 PM 44.3510 -85.0060 193° South 458 527 33,600 -917 Descending FlightAware ADS-B
Sun 03:15:33 PM 44.2690 -85.0320 193° South 463 533 33,000 -1,125 Descending FlightAware ADS-B
Sun 03:16:08 PM 44.1970 -85.0550 193° South 469 540 32,400 -896 Descending FlightAware ADS-B
Sun 03:16:40 PM 44.1290 -85.0770 193° South 468 539 32,000 -312 Descending FlightAware ADS-B
Sun 03:17:25 PM 44.0340 -85.1070 193° South 469 540 32,000  Level FlightAware ADS-B
Sun 03:17:55 PM 43.9690 -85.1280 193° South 469 540 32,000  Level FlightAware ADS-B
Sun 03:18:34 PM 43.8880 -85.1540 193° South 466 536 32,000  Level FlightAware ADS-B
Sun 03:19:11 PM 43.8100 -85.1790 193° South 464 534 32,000  Level FlightAware ADS-B
Sun 03:19:43 PM 43.7470 -85.1990 193° South 462 532 32,000  Level FlightAware ADS-B
Sun 03:20:10 PM 43.6880 -85.2170 192° South 461 531 32,000  Level FlightAware ADS-B
Sun 03:20:51 PM 43.6010 -85.2440 193° South 460 529 32,000  Level FlightAware ADS-B
Sun 03:21:29 PM 43.5230 -85.2690 193° South 458 527 32,000  Level FlightAware ADS-B
Sun 03:22:04 PM 43.4520 -85.2910 193° South 458 527 32,000  Level FlightAware ADS-B
Sun 03:22:41 PM 43.3740 -85.3160 193° South 456 525 32,000  Level FlightAware ADS-B
Sun 03:23:03 PM 43.3320 -85.3360 199° South 444 511 32,000  Level FlightAware ADS-B
Sun 03:23:41 PM 43.2670 -85.3910 212° Southwest 426 490 32,000 -78 Level FlightAware ADS-B
Sun 03:24:20 PM 43.2150 -85.4640 226° Southwest 421 484 31,900 -254 Descending FlightAware ADS-B
Sun 03:24:52 PM 43.1710 -85.5280 227° Southwest 422 486 31,700 -1,254 Descending FlightAware ADS-B
Sun 03:25:27 PM 43.1250 -85.5940 226° Southwest 412 474 30,500 -2,029 Descending FlightAware ADS-B
Sun 03:26:00 PM 43.0820 -85.6560 226° Southwest 414 476 29,400 -1,967 Descending FlightAware ADS-B
Sun 03:26:28 PM 43.0460 -85.7070 226° Southwest 407 468 28,500 -1,726 Descending FlightAware ADS-B
Sun 03:27:13 PM 42.9880 -85.7890 226° Southwest 383 441 27,300 -1,582 Descending FlightAware ADS-B
Sun 03:27:59 PM 42.9320 -85.8680 226° Southwest 375 432 26,100 -1,553 Descending FlightAware ADS-B
Sun 03:28:38 PM 42.8860 -85.9340 226° Southwest 368 423 25,100 -1,650 Descending FlightAware ADS-B
Sun 03:29:19 PM 42.8380 -86.0010 226° Southwest 352 405 23,900 -1,583 Descending FlightAware ADS-B
Sun 03:29:50 PM 42.8040 -86.0490 226° Southwest 345 397 23,200 -1,412 Descending FlightAware ADS-B
Sun 03:30:27 PM 42.7620 -86.1080 226° Southwest 340 391 22,300 -1,347 Descending FlightAware ADS-B
Sun 03:31:28 PM 42.6960 -86.2010 226° Southwest 350 403 21,000 -1,333 Descending FlightAware ADS-B
Sun 03:32:06 PM 42.6550 -86.2610 227° Southwest 349 402 20,100 -1,333 Descending FlightAware ADS-B
Sun 03:32:22 PM 42.6420 -86.2940 242° Southwest 335 386 19,800 -1,227 Descending FlightAware ADS-B
Sun 03:32:50 PM 42.6310 -86.3480 255° West 331 381 19,200 -1,391 Descending FlightAware ADS-B
Sun 03:33:31 PM 42.6160 -86.4300 256° West 331 381 18,200 -1,407 Descending FlightAware ADS-B
Sun 03:34:11 PM 42.6010 -86.5110 256° West 328 377 17,300 -1,390 Descending FlightAware ADS-B
Sun 03:34:53 PM 42.5850 -86.5970 256° West 322 371 16,300 -1,462 Descending FlightAware ADS-B
Sun 03:35:29 PM 42.5720 -86.6650 255° West 317 365 15,400 -1,406 Descending FlightAware ADS-B
Sun 03:35:57 PM 42.5610 -86.7200 255° West 317 365 14,800 -1,333 Descending FlightAware ADS-B
Sun 03:36:41 PM 42.5390 -86.8030 250° West 320 368 13,800 -1,350 Descending FlightAware ADS-B
Sun 03:37:17 PM 42.5210 -86.8690 250° West 319 367 13,000 -1,350 Descending FlightAware ADS-B
Sun 03:38:01 PM 42.4990 -86.9510 250° West 310 357 12,000 -1,568 Descending FlightAware ADS-B
Sun 03:38:45 PM 42.4770 -87.0320 250° West 312 359 10,700 -1,256 Descending FlightAware ADS-B
Sun 03:39:27 PM 42.4560 -87.1080 249° West 309 356 10,200 -585 Descending FlightAware ADS-B
Sun 03:40:07 PM 42.4370 -87.1760 249° West 278 320 9,900 -700 Descending FlightAware ADS-B
Sun 03:40:27 PM 42.4290 -87.2050 250° West 275 316 9,500 -938 Descending FlightAware ADS-B
Sun 03:40:39 PM 42.4200 -87.2270 241° Southwest 271 312 9,400 -857 Descending FlightAware ADS-B
Sun 03:40:55 PM 42.4050 -87.2430 218° Southwest 278 320 9,100 -643 Descending FlightAware ADS-B
Sun 03:41:07 PM 42.3880 -87.2490 195° South 291 335 9,100 -167 Level FlightAware ADS-B
Sun 03:41:31 PM 42.3570 -87.2510 183° South 295 339 9,000 -450 Descending FlightAware ADS-B
Sun 03:41:47 PM 42.3340 -87.2520 182° South 287 330 8,800 -1,227 Descending FlightAware ADS-B
Sun 03:42:15 PM 42.2980 -87.2540 182° South 289 333 8,100 -1,429 Descending FlightAware ADS-B
Sun 03:42:29 PM 42.2790 -87.2550 182° South 287 330 7,800 -1,304 Descending FlightAware ADS-B
Sun 03:43:01 PM 42.2360 -87.2570 182° South 290 334 7,100 -941 Descending FlightAware ADS-B
Sun 03:43:20 PM 42.2100 -87.2580 182° South 291 335 7,000 -109 Descending FlightAware ADS-B
Sun 03:43:56 PM 42.1620 -87.2610 183° South 284 327 7,000  Level FlightAware ADS-B
Sun 03:44:12 PM 42.1410 -87.2620 182° South 286 329 7,000 150 Level FlightAware ADS-B
Sun 03:44:36 PM 42.1090 -87.2640 183° South 288 331 7,100  Climbing FlightAware ADS-B
Sun 03:45:04 PM 42.0720 -87.2670 183° South 280 322 7,000  Descending FlightAware ADS-B
Sun 03:45:32 PM 42.0370 -87.2700 184° South 254 292 7,100  Climbing FlightAware ADS-B
Sun 03:45:44 PM 42.0240 -87.2740 193° South 243 280 7,000 -231 Descending FlightAware ADS-B
Sun 03:45:58 PM 42.0120 -87.2860 217° Southwest 232 267 7,000  Level FlightAware ADS-B
Sun 03:46:14 PM 42.0050 -87.3060 245° Southwest 221 254 7,000  Level FlightAware ADS-B
Sun 03:46:28 PM 42.0010 -87.3250 254° West 220 253 7,000 105 Level FlightAware ADS-B
Sun 03:47:11 PM 42.0030 -87.3800 273° West 219 252 7,100 109 Climbing FlightAware ADS-B
Sun 03:47:23 PM 42.0040 -87.3960 275° West 218 251 7,100 -545 Level FlightAware ADS-B
Sun 03:47:55 PM 42.0080 -87.4410 277° West 215 247 6,700 -1,059 Descending FlightAware ADS-B
Sun 03:48:31 PM 42.0030 -87.4880 262° West 218 251 5,900 -1,031 Descending FlightAware ADS-B
Sun 03:48:59 PM 41.9950 -87.5180 250° West 214 246 5,600 -857 Descending FlightAware ADS-B
Sun 03:49:13 PM 41.9900 -87.5370 251° West 220 253 5,300 -682 Descending FlightAware ADS-B
Sun 03:49:43 PM 41.9830 -87.5820 258° West 218 251 5,100 -833 Descending FlightAware ADS-B
Sun 03:50:25 PM 41.9840 -87.6360 271° West 188 216 4,300 -1,114 Descending FlightAware ADS-B
Sun 03:50:53 PM 41.9840 -87.6680 270° West 181 208 3,800 -1,038 Descending FlightAware ADS-B
Sun 03:51:17 PM 41.9840 -87.6940 270° West 176 203 3,400 -900 Descending FlightAware ADS-B
Sun 03:51:33 PM 41.9840 -87.7120 270° West 178 205 3,200 -818 Descending FlightAware ADS-B
Sun 03:52:01 PM 41.9840 -87.7430 270° West 185 213 2,800 -923 Descending FlightAware ADS-B
Sun 03:52:25 PM 41.9840 -87.7710 270° West 178 205 2,400 -960 Descending FlightAware ADS-B
Sun 03:52:51 PM 41.9840 -87.7990 270° West 166 191 2,000 -947 Descending FlightAware ADS-B
Sun 03:53:03 PM 41.9840 -87.8090 270° West 156 180 1,800 -783 Descending FlightAware ADS-B
Sun 03:53:37 PM 41.9840 -87.8410 270° West 145 167 1,400 -720 Descending FlightAware ADS-B
Sun 03:53:53 PM 41.9840 -87.8550 270° West 142 163 1,200 -714 Descending FlightAware ADS-B
Sun 03:54:19 PM 41.9840 -87.8760 270° West 132 152 900 -750 Descending FlightAware ADS-B
Sun 03:54:33 PM 41.9840 -87.8880 270° West 135 155 700 -857 Descending FlightAware ADS-B
Sun 03:55:17 PM 41.9840 -87.9090 270° West 19 22 -955 Descending FlightAware ADS-B
Sun 03:55:53 PM 41.9820 -87.9120 228° Southwest 21 24  Level FlightAware ADS-B
Sun 03:56:27 PM 41.9780 -87.9140 200° South 24 28  Level FlightAware ADS-B
Sun 03:56:39 PM 41.9770 -87.9140 180° South 16 18  Level FlightAware ADS-B

Login

Don't have an account? Register now (free) for customized features, flight alerts, and more!